Time;durP1;ratioP1;P1;durP2;ratioP2;P2;SDS_P1;SDS_P2;PMS_P1;PMS_P2;Temp;Humidity;BMP_temperature;BMP_pressure;BME280_temperature;BME280_humidity;BME280_pressure;Samples;Min_cycle;Max_cycle;Signal;HPM_P1;HPM_P2
2023/05/17 00:00:40;;;;;;;14.18;7.07;;;;;;;14.39;100.00;97900.94;4501116;31;20131;-65
2023/05/17 00:03:08;;;;;;;15.73;7.18;;;;;;;14.35;100.00;97905.78;4500868;31;20111;-65
2023/05/17 00:05:35;;;;;;;16.20;7.60;;;;;;;14.36;100.00;97907.41;4501114;31;20126;-65
2023/05/17 00:08:02;;;;;;;16.35;7.07;;;;;;;14.33;100.00;97910.41;4501020;31;20104;-65
2023/05/17 00:10:30;;;;;;;12.77;7.05;;;;;;;14.35;100.00;97907.59;4501097;31;20491;-65
2023/05/17 00:12:57;;;;;;;21.80;7.07;;;;;;;14.25;100.00;97909.69;4492234;31;20099;-65
2023/05/17 00:15:24;;;;;;;16.73;7.10;;;;;;;14.16;100.00;97912.41;4491683;31;20490;-65
2023/05/17 00:17:54;;;;;;;12.37;6.40;;;;;;;14.13;100.00;97919.84;4500952;31;20092;-65
2023/05/17 00:20:21;;;;;;;15.85;7.72;;;;;;;14.12;100.00;97915.59;4501079;31;20114;-65
2023/05/17 00:22:48;;;;;;;19.60;7.60;;;;;;;14.04;100.00;97911.22;4500913;31;20114;-65
2023/05/17 00:25:16;;;;;;;16.12;7.20;;;;;;;14.00;100.00;97908.12;4500991;31;20088;-65
2023/05/17 00:27:43;;;;;;;11.43;7.15;;;;;;;13.96;100.00;97906.03;4500907;31;20119;-65
2023/05/17 00:30:10;;;;;;;21.27;7.20;;;;;;;13.96;100.00;97911.28;4500878;31;20490;-65
2023/05/17 00:32:38;;;;;;;21.08;8.05;;;;;;;13.94;100.00;97914.09;4500752;31;20096;-65
2023/05/17 00:35:05;;;;;;;11.80;7.30;;;;;;;13.91;100.00;97903.94;4500967;31;20096;-65
2023/05/17 00:37:32;;;;;;;18.45;8.05;;;;;;;13.87;100.00;97907.09;4500823;31;20114;-65
2023/05/17 00:40:00;;;;;;;13.45;7.00;;;;;;;13.84;100.00;97903.03;4500668;31;20093;-65
2023/05/17 00:42:27;;;;;;;13.70;7.62;;;;;;;13.76;100.00;97905.72;4500718;31;20115;-65
2023/05/17 00:44:54;;;;;;;12.65;7.20;;;;;;;13.78;100.00;97907.19;4500746;31;20753;-65
2023/05/17 00:47:22;;;;;;;11.60;7.28;;;;;;;13.80;100.00;97901.75;4500818;31;20114;-65
2023/05/17 00:49:50;;;;;;;13.30;7.53;;;;;;;13.90;100.00;97906.75;4500594;31;20567;-65
2023/05/17 00:52:17;;;;;;;16.95;7.43;;;;;;;13.90;100.00;97904.09;4500798;31;20096;-65
2023/05/17 00:54:45;;;;;;;14.80;7.50;;;;;;;13.91;100.00;97908.38;4500567;31;20125;-65
2023/05/17 00:57:13;;;;;;;14.35;7.20;;;;;;;13.93;100.00;97909.84;4500542;31;20130;-65
2023/05/17 00:59:41;;;;;;;14.60;7.22;;;;;;;13.94;100.00;97911.47;4486171;31;20091;-65
2023/05/17 01:02:08;;;;;;;16.23;8.00;;;;;;;13.85;100.00;97909.91;4500534;31;20099;-65
2023/05/17 01:04:36;;;;;;;17.40;8.57;;;;;;;13.86;100.00;97914.19;4499117;31;20095;-65
2023/05/17 01:07:05;;;;;;;15.68;7.78;;;;;;;13.87;100.00;97917.63;4500533;31;20478;-65
2023/05/17 01:09:33;;;;;;;15.05;7.03;;;;;;;13.90;100.00;97926.00;4500328;31;20118;-65
2023/05/17 01:12:31;;;;;;;17.85;7.93;;;;;;;13.91;100.00;97930.25;4497681;31;20096;-65
2023/05/17 01:15:18;;;;;;;15.57;7.90;;;;;;;13.96;100.00;97927.09;4488145;31;20096;-65
2023/05/17 01:17:55;;;;;;;14.15;8.48;;;;;;;13.98;100.00;97925.09;4500725;31;20132;-65
2023/05/17 01:20:35;;;;;;;12.00;7.62;;;;;;;14.00;100.00;97931.00;4500407;31;20105;-65
2023/05/17 01:23:30;;;;;;;17.67;8.23;;;;;;;13.97;100.00;97924.31;4499225;31;20080;-65
2023/05/17 01:26:01;;;;;;;13.77;7.62;;;;;;;13.98;100.00;97918.00;4499268;31;20424;-65
2023/05/17 01:28:28;;;;;;;14.85;7.55;;;;;;;13.98;100.00;97918.00;4500271;31;20096;-65
2023/05/17 01:30:56;;;;;;;23.15;8.13;;;;;;;13.95;100.00;97910.47;4498616;31;20119;-65
2023/05/17 01:33:24;;;;;;;17.23;7.95;;;;;;;13.94;100.00;97908.84;4498905;31;20249;-65
2023/05/17 01:35:51;;;;;;;18.17;8.23;;;;;;;13.94;100.00;97892.22;4500077;31;20157;-65
2023/05/17 01:38:19;;;;;;;18.50;8.43;;;;;;;13.91;100.00;97882.84;4500207;31;20153;-65
2023/05/17 01:40:54;;;;;;;15.30;8.20;;;;;;;13.83;100.00;97875.88;4499933;31;20112;-65
2023/05/17 01:43:26;;;;;;;19.98;7.93;;;;;;;13.75;100.00;97872.53;4500174;31;20098;-65
2023/05/17 01:46:08;;;;;;;17.73;8.93;;;;;;;13.64;100.00;97873.75;4500028;31;20154;-65
2023/05/17 01:48:39;;;;;;;19.95;9.27;;;;;;;13.62;100.00;97879.19;4500088;31;20150;-65
2023/05/17 01:51:08;;;;;;;17.67;8.55;;;;;;;13.56;100.00;97872.00;4500811;31;20517;-65
2023/05/17 01:53:45;;;;;;;14.93;8.30;;;;;;;13.44;100.00;97865.53;4500857;31;20080;-65
2023/05/17 01:56:20;;;;;;;13.18;7.72;;;;;;;13.38;100.00;97861.00;4500596;31;20118;-65
2023/05/17 01:58:47;;;;;;;16.87;8.40;;;;;;;13.26;100.00;97864.03;4501021;31;20108;-65
2023/05/17 02:01:17;;;;;;;15.35;8.23;;;;;;;13.19;100.00;97863.09;4501967;31;20128;-65
2023/05/17 02:03:48;;;;;;;12.57;6.78;;;;;;;13.07;100.00;97869.75;4501876;31;20143;-65
2023/05/17 02:06:16;;;;;;;14.90;7.10;;;;;;;12.99;100.00;97877.69;4502149;31;20109;-65
2023/05/17 02:08:44;;;;;;;12.32;7.97;;;;;;;12.95;100.00;97874.59;4501912;31;20151;-65
2023/05/17 02:11:11;;;;;;;19.17;8.40;;;;;;;12.90;100.00;97876.91;4501944;31;20148;-65
2023/05/17 02:13:39;;;;;;;14.98;8.20;;;;;;;12.83;100.00;97884.69;4488260;31;20116;-65
2023/05/17 02:16:06;;;;;;;15.10;8.20;;;;;;;12.84;100.00;97875.81;4497244;31;20118;-65
2023/05/17 02:18:34;;;;;;;15.68;8.60;;;;;;;12.96;100.00;97882.31;4501975;31;20119;-65
2023/05/17 02:21:02;;;;;;;18.90;8.30;;;;;;;12.92;100.00;97878.38;4501556;31;20138;-65
2023/05/17 02:23:29;;;;;;;13.90;8.50;;;;;;;12.84;100.00;97885.50;4501748;31;20141;-65
2023/05/17 02:25:56;;;;;;;16.23;8.85;;;;;;;12.80;100.00;97885.03;4501522;31;20168;-65
2023/05/17 02:28:24;;;;;;;18.83;8.30;;;;;;;12.76;100.00;97889.00;4501803;31;20183;-65
2023/05/17 02:30:51;;;;;;;19.98;9.10;;;;;;;12.69;100.00;97890.69;4501530;31;20084;-65
2023/05/17 02:33:18;;;;;;;17.40;8.35;;;;;;;12.66;100.00;97893.66;4501729;31;20193;-65
2023/05/17 02:35:48;;;;;;;13.57;7.90;;;;;;;12.62;100.00;97913.37;4501575;31;20253;-65
2023/05/17 02:38:18;;;;;;;17.85;8.98;;;;;;;12.59;100.00;97917.97;4501709;31;20092;-65
2023/05/17 02:40:45;;;;;;;15.98;9.10;;;;;;;12.58;100.00;97932.12;4501781;31;20129;-65
2023/05/17 02:43:13;;;;;;;14.02;8.57;;;;;;;12.58;100.00;97936.53;4501691;31;20118;-65
2023/05/17 02:45:40;;;;;;;18.40;7.82;;;;;;;12.54;100.00;97941.31;4501503;31;20088;-65
2023/05/17 02:48:07;;;;;;;15.32;7.05;;;;;;;12.46;100.00;97935.28;4500364;31;20126;-65
2023/05/17 02:50:34;;;;;;;19.70;8.02;;;;;;;12.45;100.00;97923.94;4501500;31;20845;-65
2023/05/17 02:53:02;;;;;;;12.07;7.82;;;;;;;12.51;100.00;97932.97;4501569;31;20126;-65
2023/05/17 02:55:29;;;;;;;14.07;8.32;;;;;;;12.57;100.00;97933.09;4501671;31;20088;-65
2023/05/17 02:57:57;;;;;;;15.18;8.95;;;;;;;12.65;100.00;97937.50;4501897;31;20114;-65
2023/05/17 03:00:24;;;;;;;15.70;8.95;;;;;;;12.69;100.00;97935.37;4500722;31;20084;-65
2023/05/17 03:02:52;;;;;;;21.58;10.07;;;;;;;12.75;100.00;97939.94;4501418;31;20164;-65
2023/05/17 03:05:19;;;;;;;45.72;11.32;;;;;;;12.89;100.00;97931.31;4501768;31;20172;-65
2023/05/17 03:07:47;;;;;;;33.78;11.93;;;;;;;12.94;100.00;97923.75;4501779;31;20092;-65
2023/05/17 03:10:15;;;;;;;20.73;11.98;;;;;;;12.92;100.00;97924.91;4501543;31;20578;-65
2023/05/17 03:12:42;;;;;;;22.58;11.98;;;;;;;12.96;100.00;97931.44;4494053;31;20159;-65
2023/05/17 03:15:10;;;;;;;25.70;12.57;;;;;;;12.99;100.00;97940.78;4490497;31;20087;-65
2023/05/17 03:17:37;;;;;;;36.25;13.18;;;;;;;13.01;100.00;97944.06;4501698;31;20457;-65
2023/05/17 03:20:06;;;;;;;30.60;13.65;;;;;;;12.92;100.00;97957.25;4501534;31;20160;-65
2023/05/17 03:22:34;;;;;;;59.47;12.73;;;;;;;12.93;100.00;97953.63;4501513;31;20095;-65
2023/05/17 03:25:02;;;;;;;183.95;17.48;;;;;;;12.95;100.00;97949.00;4501499;31;20122;-65
2023/05/17 03:27:31;;;;;;;134.87;14.00;;;;;;;12.94;100.00;97952.66;4501619;31;20225;-65
2023/05/17 03:29:59;;;;;;;27.42;10.02;;;;;;;12.94;100.00;97950.03;4501509;31;20148;-65
2023/05/17 03:32:27;;;;;;;58.63;11.27;;;;;;;12.89;100.00;97948.91;4501086;31;20099;-65
2023/05/17 03:34:54;;;;;;;65.70;10.60;;;;;;;12.77;100.00;97956.34;4501126;31;20084;-65
2023/05/17 03:37:22;;;;;;;70.43;9.50;;;;;;;12.72;100.00;97956.84;4501589;31;20099;-65
2023/05/17 03:39:49;;;;;;;52.22;8.63;;;;;;;12.65;100.00;97963.78;4501237;31;20576;-65
2023/05/17 03:42:17;;;;;;;68.10;9.52;;;;;;;12.65;100.00;97968.22;4501101;31;20115;-65
2023/05/17 03:44:44;;;;;;;42.25;8.10;;;;;;;12.58;100.00;97965.44;4501382;31;20115;-65
2023/05/17 03:47:12;;;;;;;16.87;6.78;;;;;;;12.56;100.00;97962.16;4501421;31;20104;-65
2023/05/17 03:49:41;;;;;;;21.42;7.62;;;;;;;12.54;100.00;97967.59;4501559;31;20100;-65
2023/05/17 03:52:09;;;;;;;22.80;7.65;;;;;;;12.51;100.00;97978.44;4501391;31;20481;-65
2023/05/17 03:54:37;;;;;;;19.62;7.05;;;;;;;12.47;100.00;97979.75;4501527;31;20127;-65
2023/05/17 03:57:05;;;;;;;47.85;7.55;;;;;;;12.49;100.00;97987.47;4500954;31;20088;-65
2023/05/17 03:59:32;;;;;;;57.25;7.97;;;;;;;12.43;100.00;97989.00;4501069;31;20538;-65
2023/05/17 04:02:00;;;;;;;94.43;8.73;;;;;;;12.45;100.00;97996.69;4501129;31;20155;-65
2023/05/17 04:04:27;;;;;;;117.85;9.63;;;;;;;12.44;100.00;97995.84;4501217;31;20122;-65
2023/05/17 04:06:55;;;;;;;70.15;9.10;;;;;;;12.43;100.00;97999.50;4500994;31;20079;-65
2023/05/17 04:09:22;;;;;;;59.08;9.20;;;;;;;12.52;100.00;98003.72;4501291;31;20100;-65
2023/05/17 04:11:49;;;;;;;48.10;8.23;;;;;;;12.52;100.00;98010.78;4498981;31;20461;-65
2023/05/17 04:14:17;;;;;;;135.23;10.82;;;;;;;12.52;100.00;98014.25;4485337;31;20100;-65
2023/05/17 04:16:45;;;;;;;65.57;8.75;;;;;;;12.53;100.00;98010.59;4500811;31;20096;-65
2023/05/17 04:19:13;;;;;;;73.78;8.73;;;;;;;12.58;100.00;98010.94;4500910;31;20516;-65
2023/05/17 04:21:40;;;;;;;32.78;7.93;;;;;;;12.62;100.00;98008.78;4500195;31;20160;-65
2023/05/17 04:24:07;;;;;;;15.70;7.35;;;;;;;12.65;100.00;98018.97;4500120;31;20115;-65
2023/05/17 04:26:35;;;;;;;12.10;7.32;;;;;;;12.62;100.00;98023.75;4496932;31;20111;-65
2023/05/17 04:29:02;;;;;;;11.45;6.28;;;;;;;12.64;100.00;98019.94;4490284;31;20093;-65
2023/05/17 04:31:30;;;;;;;13.25;7.28;;;;;;;12.67;100.00;98024.03;4485293;31;20088;-65
2023/05/17 04:33:59;;;;;;;15.60;7.97;;;;;;;12.75;100.00;98021.41;4488473;31;20176;-65
2023/05/17 04:36:27;;;;;;;11.18;6.40;;;;;;;12.79;100.00;98033.19;4489168;31;20115;-65
2023/05/17 04:38:55;;;;;;;13.25;6.78;;;;;;;12.79;100.00;98043.72;4491653;31;20140;-66
2023/05/17 04:41:23;;;;;;;11.75;6.95;;;;;;;12.90;100.00;98050.41;4499300;31;20115;-65
2023/05/17 04:43:50;;;;;;;11.35;6.80;;;;;;;12.98;100.00;98041.69;4487025;31;20118;-66
2023/05/17 04:46:17;;;;;;;12.18;6.85;;;;;;;13.02;100.00;98042.97;4486975;31;20173;-66
2023/05/17 04:48:45;;;;;;;9.95;6.30;;;;;;;13.04;100.00;98051.53;4493278;31;20152;-66
2023/05/17 04:51:13;;;;;;;11.23;6.18;;;;;;;13.08;100.00;98058.91;4497646;31;20095;-66
2023/05/17 04:53:40;;;;;;;13.32;6.40;;;;;;;13.13;100.00;98063.66;4490622;31;20120;-66
2023/05/17 04:56:08;;;;;;;9.85;5.20;;;;;;;13.17;100.00;98074.66;4490636;31;20091;-66
2023/05/17 04:58:35;;;;;;;12.45;5.95;;;;;;;13.22;100.00;98078.41;4490108;31;20440;-66
2023/05/17 05:01:03;;;;;;;8.63;4.80;;;;;;;13.25;100.00;98077.25;4489352;31;20157;-66
2023/05/17 05:03:31;;;;;;;9.65;5.32;;;;;;;13.26;100.00;98074.44;4487916;31;20096;-65
2023/05/17 05:05:58;;;;;;;13.30;5.70;;;;;;;13.35;100.00;98067.34;4489387;31;20508;-66
2023/05/17 05:08:26;;;;;;;7.20;4.68;;;;;;;13.39;100.00;98073.09;4488578;31;20524;-66
2023/05/17 05:10:54;;;;;;;8.40;4.68;;;;;;;13.50;100.00;98072.69;4489190;31;20104;-66
2023/05/17 05:13:22;;;;;;;9.35;4.87;;;;;;;13.50;100.00;98072.69;4489839;31;20180;-66
2023/05/17 05:15:49;;;;;;;12.80;6.28;;;;;;;13.57;100.00;98070.22;4494773;31;20126;-66
2023/05/17 05:18:18;;;;;;;13.43;5.82;;;;;;;13.65;100.00;98062.25;4488847;31;20477;-67
2023/05/17 05:20:47;;;;;;;10.90;5.78;;;;;;;13.73;100.00;98064.00;4494875;31;20569;-67
2023/05/17 05:23:14;;;;;;;10.27;6.00;;;;;;;13.76;100.00;98075.03;4484993;31;20156;-67
2023/05/17 05:25:43;;;;;;;10.43;6.15;;;;;;;13.94;100.00;98077.34;4494332;31;20146;-67
2023/05/17 05:28:11;;;;;;;11.43;5.65;;;;;;;14.01;100.00;98088.03;4495692;31;20092;-67
2023/05/17 05:30:38;;;;;;;11.05;4.72;;;;;;;13.98;100.00;98089.19;4487127;31;20126;-67
2023/05/17 05:33:06;;;;;;;8.75;4.55;;;;;;;14.04;100.00;98095.56;4475213;31;20105;-67
2023/05/17 05:35:33;;;;;;;8.02;4.68;;;;;;;14.11;100.00;98099.16;4484424;31;20103;-67
2023/05/17 05:38:02;;;;;;;11.27;6.00;;;;;;;14.12;100.00;98094.69;4479259;31;20088;-67
2023/05/17 05:40:30;;;;;;;10.25;5.55;;;;;;;14.10;100.00;98091.41;4496352;31;20088;-66
2023/05/17 05:42:57;;;;;;;10.25;4.97;;;;;;;14.08;100.00;98106.56;4496580;31;20159;-66
2023/05/17 05:45:24;;;;;;;8.65;5.10;;;;;;;14.13;100.00;98112.13;4491798;31;20119;-67
2023/05/17 05:47:52;;;;;;;9.85;5.37;;;;;;;14.16;100.00;98106.53;4485929;31;20100;-67
2023/05/17 05:50:19;;;;;;;9.90;5.07;;;;;;;14.07;100.00;98112.84;4497370;31;20206;-66
2023/05/17 05:52:47;;;;;;;11.07;5.93;;;;;;;14.18;100.00;98115.06;4491142;31;20796;-67
2023/05/17 05:55:14;;;;;;;10.75;5.97;;;;;;;14.11;100.00;98117.59;4489305;31;20096;-67
2023/05/17 05:57:42;;;;;;;10.00;5.47;;;;;;;14.18;100.00;98109.78;4496048;31;20097;-66
2023/05/17 06:00:10;;;;;;;10.02;6.35;;;;;;;14.27;100.00;98118.44;4486604;31;20155;-66
2023/05/17 06:02:38;;;;;;;10.85;6.28;;;;;;;14.13;100.00;98120.84;4495644;31;20100;-65
2023/05/17 06:05:07;;;;;;;16.62;6.32;;;;;;;14.12;100.00;98121.03;4493162;31;20120;-67
2023/05/17 06:07:34;;;;;;;13.00;6.53;;;;;;;14.14;100.00;98121.66;4493701;31;20119;-67
2023/05/17 06:10:01;;;;;;;13.75;6.45;;;;;;;14.22;100.00;98123.41;4496134;31;20488;-67
2023/05/17 06:12:28;;;;;;;11.95;5.87;;;;;;;14.27;100.00;98116.63;4496004;31;20765;-66
2023/05/17 06:14:56;;;;;;;10.32;5.62;;;;;;;14.45;100.00;98113.69;4494093;31;20095;-66
2023/05/17 06:17:23;;;;;;;9.13;5.32;;;;;;;14.35;100.00;98116.56;4475943;31;20123;-66
2023/05/17 06:19:51;;;;;;;10.15;5.37;;;;;;;14.38;100.00;98104.84;4482008;31;20087;-66
2023/05/17 06:22:18;;;;;;;10.10;5.93;;;;;;;14.46;100.00;98115.34;4480468;31;20157;-66
2023/05/17 06:24:45;;;;;;;10.95;6.25;;;;;;;14.41;100.00;98114.22;4479917;31;20092;-66
2023/05/17 06:27:13;;;;;;;12.82;6.20;;;;;;;14.49;100.00;98111.53;4487195;31;20120;-67
2023/05/17 06:29:40;;;;;;;10.77;6.85;;;;;;;14.43;100.00;98120.97;4482859;31;20439;-67
2023/05/17 06:32:07;;;;;;;12.23;7.32;;;;;;;14.36;100.00;98118.19;4481965;31;20122;-66
2023/05/17 06:34:35;;;;;;;12.88;7.57;;;;;;;14.43;100.00;98130.66;4484597;31;20127;-66
2023/05/17 06:37:02;;;;;;;13.57;7.72;;;;;;;14.48;100.00;98136.22;4489154;31;20494;-66
2023/05/17 06:39:29;;;;;;;12.68;6.78;;;;;;;14.52;100.00;98140.16;4483369;31;20156;-66
2023/05/17 06:41:57;;;;;;;13.13;7.95;;;;;;;14.46;100.00;98133.78;4488285;31;20096;-66
2023/05/17 06:44:24;;;;;;;14.45;8.82;;;;;;;14.41;100.00;98140.56;4489138;31;20104;-66
2023/05/17 06:46:51;;;;;;;12.48;7.43;;;;;;;14.41;100.00;98149.28;4485340;31;20112;-67
2023/05/17 06:49:18;;;;;;;14.55;8.75;;;;;;;14.35;100.00;98156.09;4485087;31;20084;-65
2023/05/17 06:51:47;;;;;;;15.07;7.95;;;;;;;14.23;100.00;98157.50;4487524;31;20123;-66
2023/05/17 06:54:14;;;;;;;12.70;7.25;;;;;;;14.21;100.00;98164.75;4488250;31;20123;-66
2023/05/17 06:56:42;;;;;;;14.35;7.07;;;;;;;14.27;100.00;98158.78;4486867;31;20104;-66
2023/05/17 06:59:09;;;;;;;11.88;7.15;;;;;;;14.46;100.00;98159.28;4485067;31;20494;-66
2023/05/17 07:01:36;;;;;;;13.02;8.25;;;;;;;14.65;100.00;98158.84;4486753;31;20130;-67
2023/05/17 07:04:04;;;;;;;12.88;6.95;;;;;;;14.85;100.00;98160.97;4478776;31;20130;-67
2023/05/17 07:06:31;;;;;;;13.93;7.07;;;;;;;14.85;100.00;98163.59;4486722;31;20115;-67
2023/05/17 07:08:59;;;;;;;14.50;7.30;;;;;;;14.87;100.00;98169.53;4485569;31;20087;-66
2023/05/17 07:11:26;;;;;;;11.65;6.85;;;;;;;14.79;100.00;98174.88;4483432;31;20492;-66
2023/05/17 07:13:53;;;;;;;12.90;7.03;;;;;;;14.83;100.00;98176.16;4481986;31;20140;-66
2023/05/17 07:16:20;;;;;;;12.90;6.30;;;;;;;14.76;100.00;98188.41;4481885;31;20172;-66
2023/05/17 07:18:48;;;;;;;11.25;6.10;;;;;;;14.72;100.00;98180.84;4479801;31;20117;-66
2023/05/17 07:21:15;;;;;;;8.70;5.68;;;;;;;14.70;100.00;98177.59;4485098;31;20122;-67
2023/05/17 07:23:42;;;;;;;9.13;4.82;;;;;;;14.58;100.00;98171.09;4481840;31;20201;-66
2023/05/17 07:26:10;;;;;;;8.90;4.57;;;;;;;14.52;100.00;98158.63;4483215;31;20104;-66
2023/05/17 07:28:38;;;;;;;9.07;4.90;;;;;;;14.57;100.00;98163.34;4484967;31;20461;-66
2023/05/17 07:31:06;;;;;;;6.43;4.53;;;;;;;14.65;100.00;98168.56;4485505;31;20127;-66
2023/05/17 07:33:33;;;;;;;5.32;3.75;;;;;;;14.49;100.00;98169.50;4483964;31;20134;-66
2023/05/17 07:36:01;;;;;;;6.00;4.28;;;;;;;14.68;100.00;98168.22;4486908;31;20460;-68
2023/05/17 07:38:28;;;;;;;6.55;4.80;;;;;;;14.85;100.00;98175.00;4483488;31;20492;-66
2023/05/17 07:40:56;;;;;;;7.75;4.68;;;;;;;14.81;100.00;98178.16;4488224;31;20847;-64
2023/05/17 07:43:23;;;;;;;6.37;4.00;;;;;;;14.95;100.00;98181.81;4485878;31;20139;-66
2023/05/17 07:45:50;;;;;;;10.18;5.12;;;;;;;14.80;100.00;98181.78;4484332;31;20413;-67
2023/05/17 07:48:18;;;;;;;10.20;4.20;;;;;;;14.60;100.00;98189.34;4484627;31;20118;-67
2023/05/17 07:50:46;;;;;;;8.27;4.43;;;;;;;14.50;100.00;98193.06;4482155;31;171972;-66
2023/05/17 07:53:13;;;;;;;8.00;3.80;;;;;;;14.51;100.00;98196.50;4484202;31;20166;-67
2023/05/17 07:55:40;;;;;;;5.15;4.03;;;;;;;14.54;100.00;98190.88;4482613;31;20122;-67
2023/05/17 07:58:13;;;;;;;5.10;3.45;;;;;;;14.46;100.00;98190.91;4485989;31;20122;-66
2023/05/17 08:00:41;;;;;;;6.32;3.85;;;;;;;14.53;100.00;98186.59;4485674;31;20179;-68
2023/05/17 08:03:08;;;;;;;6.25;4.47;;;;;;;14.65;100.00;98184.38;4483396;31;20088;-68
2023/05/17 08:05:37;;;;;;;7.22;4.87;;;;;;;14.65;100.00;98184.38;4486031;31;20100;-67
2023/05/17 08:08:04;;;;;;;6.72;4.37;;;;;;;14.45;100.00;98197.22;4484244;31;20106;-67
2023/05/17 08:10:34;;;;;;;7.53;4.78;;;;;;;14.60;100.00;98194.63;4480479;31;20571;-65
2023/05/17 08:13:03;;;;;;;9.18;5.22;;;;;;;14.52;100.00;98196.31;4487290;31;20118;-66
2023/05/17 08:15:30;;;;;;;6.68;5.00;;;;;;;14.59;100.00;98201.69;4487138;31;20113;-66
2023/05/17 08:17:58;;;;;;;9.35;5.32;;;;;;;14.51;100.00;98199.94;4483644;31;20112;-66
2023/05/17 08:20:27;;;;;;;9.90;5.12;;;;;;;14.33;100.00;98205.50;4485286;31;20092;-67
2023/05/17 08:22:55;;;;;;;8.35;4.78;;;;;;;14.41;100.00;98198.53;4485917;31;20084;-66
2023/05/17 08:25:23;;;;;;;9.57;4.68;;;;;;;14.52;100.00;98212.13;4484287;31;20183;-66
2023/05/17 08:27:50;;;;;;;9.18;4.70;;;;;;;14.44;100.00;98212.19;4483798;31;20104;-66
2023/05/17 08:30:17;;;;;;;8.43;5.40;;;;;;;14.29;100.00;98204.22;4487433;31;20096;-66
2023/05/17 08:32:55;;;;;;;9.18;6.00;;;;;;;14.29;100.00;98222.69;4487064;31;20142;-66
2023/05/17 08:35:22;;;;;;;11.15;5.93;;;;;;;14.18;100.00;98221.22;4479069;31;20131;-67
2023/05/17 08:37:53;;;;;;;10.98;5.28;;;;;;;14.25;100.00;98226.66;4483775;31;20104;-66
2023/05/17 08:40:21;;;;;;;7.75;4.78;;;;;;;14.28;100.00;98231.56;4482277;31;20498;-66
2023/05/17 08:42:51;;;;;;;6.45;4.65;;;;;;;14.23;100.00;98227.81;4486032;31;20096;-66
2023/05/17 08:45:19;;;;;;;12.90;4.65;;;;;;;14.16;100.00;98227.69;4483216;31;20108;-65
2023/05/17 08:47:47;;;;;;;6.72;4.30;;;;;;;14.26;100.00;98223.03;4483275;31;20107;-66
2023/05/17 08:50:16;;;;;;;6.68;4.35;;;;;;;14.21;100.00;98230.63;4480977;31;20862;-65
2023/05/17 08:52:45;;;;;;;8.35;4.35;;;;;;;14.08;100.00;98223.28;4485559;31;20097;-63
2023/05/17 08:55:15;;;;;;;6.28;3.78;;;;;;;14.27;100.00;98222.00;4486784;31;20165;-65
2023/05/17 08:57:42;;;;;;;6.85;4.00;;;;;;;14.30;100.00;98221.66;4480914;31;20100;-65
2023/05/17 09:00:14;;;;;;;5.72;3.58;;;;;;;14.44;100.00;98214.81;4476807;31;20720;-65
2023/05/17 09:02:42;;;;;;;8.32;3.83;;;;;;;14.60;100.00;98224.44;4480900;31;20158;-65
2023/05/17 09:05:10;;;;;;;5.68;3.55;;;;;;;14.74;100.00;98222.88;4484268;31;20096;-65
2023/05/17 09:07:37;;;;;;;7.80;3.95;;;;;;;15.02;100.00;98222.31;4482954;31;20104;-65
2023/05/17 09:10:05;;;;;;;8.52;4.05;;;;;;;15.15;100.00;98232.25;4484197;31;20152;-64
2023/05/17 09:12:36;;;;;;;6.30;3.85;;;;;;;15.19;100.00;98225.63;4486702;31;20114;-65
2023/05/17 09:15:14;;;;;;;8.77;4.70;;;;;;;15.11;100.00;98223.88;4485986;31;20112;-65
2023/05/17 09:17:42;;;;;;;7.20;3.65;;;;;;;14.98;100.00;98219.19;4479401;31;20104;-66
2023/05/17 09:20:10;;;;;;;5.50;3.80;;;;;;;14.80;100.00;98213.44;4482588;31;20126;-66
2023/05/17 09:22:38;;;;;;;4.45;3.25;;;;;;;14.89;100.00;98217.63;4482781;31;20447;-66
2023/05/17 09:25:06;;;;;;;4.55;3.33;;;;;;;14.99;100.00;98226.13;4484895;31;20100;-66
2023/05/17 09:27:35;;;;;;;7.55;3.85;;;;;;;14.93;100.00;98218.94;4481498;31;20760;-65
2023/05/17 09:30:02;;;;;;;7.35;3.80;;;;;;;15.03;100.00;98223.94;4482639;31;20088;-65
2023/05/17 09:32:32;;;;;;;7.25;3.80;;;;;;;15.17;100.00;98228.44;4484627;31;20497;-66
2023/05/17 09:34:59;;;;;;;9.15;3.80;;;;;;;15.28;100.00;98243.00;4483014;31;20134;-68
2023/05/17 09:37:27;;;;;;;5.97;3.65;;;;;;;15.27;100.00;98244.81;4482139;31;20152;-67
2023/05/17 09:39:55;;;;;;;5.80;3.65;;;;;;;15.23;100.00;98240.06;4480296;31;20115;-67
2023/05/17 09:42:25;;;;;;;6.07;3.97;;;;;;;15.14;100.00;98256.97;4484481;31;20165;-67
2023/05/17 09:44:56;;;;;;;4.75;3.58;;;;;;;14.78;100.00;98258.44;4485674;31;20097;-68
2023/05/17 09:47:32;;;;;;;7.00;4.10;;;;;;;14.52;100.00;98261.41;4484078;31;20473;-66
2023/05/17 09:50:02;;;;;;;8.73;4.45;;;;;;;14.56;100.00;98260.03;4481512;31;20107;-67
2023/05/17 09:52:30;;;;;;;6.25;4.40;;;;;;;14.38;100.00;98269.06;4481808;31;20179;-66
2023/05/17 09:54:59;;;;;;;8.73;4.40;;;;;;;14.38;100.00;98263.78;4483325;31;20165;-67
2023/05/17 09:57:27;;;;;;;6.75;4.45;;;;;;;14.38;100.00;98270.84;4484730;31;20095;-67
2023/05/17 09:59:56;;;;;;;6.40;4.53;;;;;;;14.50;100.00;98280.03;4482916;31;20165;-68
2023/05/17 10:02:27;;;;;;;7.75;4.53;;;;;;;14.20;100.00;98276.38;4485830;31;20152;-68
2023/05/17 10:04:56;;;;;;;8.15;4.78;;;;;;;13.95;100.00;98273.88;4477099;31;20084;-68
2023/05/17 10:07:25;;;;;;;8.50;4.68;;;;;;;13.91;100.00;98283.09;4480651;31;20112;-66
2023/05/17 10:09:54;;;;;;;9.43;3.92;;;;;;;13.98;100.00;98283.25;4483798;31;20096;-67
2023/05/17 10:12:23;;;;;;;8.00;4.50;;;;;;;13.90;100.00;98289.38;4489601;31;20108;-67
2023/05/17 10:14:55;;;;;;;5.85;4.35;;;;;;;13.83;100.00;98283.12;4489010;31;20139;-67
2023/05/17 10:17:26;;;;;;;6.90;4.35;;;;;;;13.76;100.00;98279.53;4483631;31;20115;-68
2023/05/17 10:19:53;;;;;;;7.53;4.50;;;;;;;13.65;100.00;98284.16;4485466;31;20164;-69
2023/05/17 10:22:21;;;;;;;9.20;4.40;;;;;;;13.73;100.00;98279.88;4482711;31;20172;-66
2023/05/17 10:24:50;;;;;;;5.95;4.18;;;;;;;13.73;100.00;98283.34;4482092;31;20124;-67
2023/05/17 10:27:19;;;;;;;5.60;4.32;;;;;;;14.09;100.00;98274.97;4483672;31;20095;-66
2023/05/17 10:29:47;;;;;;;7.85;4.65;;;;;;;14.32;100.00;98285.56;4482406;31;20120;-68
2023/05/17 10:32:18;;;;;;;6.05;4.30;;;;;;;14.34;100.00;98286.19;4480149;31;20127;-68
2023/05/17 10:34:45;;;;;;;5.85;4.05;;;;;;;14.45;100.00;98289.44;4485061;31;20104;-67
2023/05/17 10:37:29;;;;;;;9.43;3.97;;;;;;;14.72;100.00;98278.41;4484176;31;20087;-68
2023/05/17 10:39:56;;;;;;;7.60;4.40;;;;;;;15.00;100.00;98288.41;4481731;31;20092;-68
2023/05/17 10:42:24;;;;;;;9.85;4.15;;;;;;;15.09;100.00;98289.19;4485299;31;20138;-67
2023/05/17 10:44:53;;;;;;;5.15;3.40;;;;;;;15.00;100.00;98298.16;4483156;31;20143;-67
2023/05/17 10:47:21;;;;;;;8.05;4.22;;;;;;;15.07;100.00;98301.72;4489768;31;20160;-66
2023/05/17 10:49:50;;;;;;;7.62;4.05;;;;;;;15.03;100.00;98300.44;4484784;31;20135;-66
2023/05/17 10:52:20;;;;;;;5.85;3.50;;;;;;;14.63;100.00;98308.47;4485678;31;20487;-66
2023/05/17 10:54:51;;;;;;;5.55;3.70;;;;;;;14.79;100.00;98310.19;4483816;31;20469;-67
2023/05/17 10:57:33;;;;;;;7.18;3.45;;;;;;;14.52;100.00;98316.75;4482300;31;20127;-66
2023/05/17 11:00:20;;;;;;;5.22;3.75;;;;;;;14.45;100.00;98316.63;4483450;31;20092;-65
2023/05/17 11:02:49;;;;;;;5.60;3.55;;;;;;;14.22;100.00;98316.56;4483958;31;20100;-67
2023/05/17 11:05:24;;;;;;;6.35;3.12;;;;;;;14.09;100.00;98322.38;4486866;31;20104;-66
2023/05/17 11:07:51;;;;;;;6.80;3.97;;;;;;;14.24;100.00;98327.75;4484617;31;20499;-67
2023/05/17 11:10:19;;;;;;;6.30;3.58;;;;;;;14.36;100.00;98321.09;4486711;31;20104;-67
2023/05/17 11:12:52;;;;;;;8.23;3.20;;;;;;;14.42;100.00;98326.69;4482428;31;20631;-67
2023/05/17 11:15:26;;;;;;;5.68;3.33;;;;;;;14.46;100.00;98330.59;4484098;31;20092;-66
2023/05/17 11:17:56;;;;;;;5.05;3.50;;;;;;;14.53;100.00;98326.28;4480683;31;20091;-67
2023/05/17 11:20:24;;;;;;;5.28;3.37;;;;;;;14.72;100.00;98336.41;4483343;31;20484;-67
2023/05/17 11:22:57;;;;;;;7.25;3.45;;;;;;;14.83;100.00;98331.75;4483335;31;20118;-67
2023/05/17 11:25:30;;;;;;;7.57;2.92;;;;;;;15.11;100.00;98328.56;4486001;31;20495;-68